sensor_id;sensor_type;location;lat;lon;timestamp;temperature;humidity
2523;DHT22;1272;53.332;9.860;2022-11-21T00:01:32;-1.50;99.90
2523;DHT22;1272;53.332;9.860;2022-11-21T00:03:57;-1.50;99.90
2523;DHT22;1272;53.332;9.860;2022-11-21T00:06:23;-1.60;99.90
2523;DHT22;1272;53.332;9.860;2022-11-21T00:08:49;-1.60;99.90
2523;DHT22;1272;53.332;9.860;2022-11-21T00:11:15;-1.60;99.90
2523;DHT22;1272;53.332;9.860;2022-11-21T00:13:42;-1.70;99.90
2523;DHT22;1272;53.332;9.860;2022-11-21T00:16:12;-1.70;99.90
2523;DHT22;1272;53.332;9.860;2022-11-21T00:18:39;-1.80;99.90
2523;DHT22;1272;53.332;9.860;2022-11-21T00:21:06;-1.80;99.90
2523;DHT22;1272;53.332;9.860;2022-11-21T00:23:33;-1.70;99.90
2523;DHT22;1272;53.332;9.860;2022-11-21T00:26:03;-1.80;99.90
2523;DHT22;1272;53.332;9.860;2022-11-21T00:28:28;-1.80;99.90
2523;DHT22;1272;53.332;9.860;2022-11-21T00:30:54;-1.80;99.90
2523;DHT22;1272;53.332;9.860;2022-11-21T00:33:20;-1.80;99.90
2523;DHT22;1272;53.332;9.860;2022-11-21T00:35:48;-1.80;99.90
2523;DHT22;1272;53.332;9.860;2022-11-21T00:38:14;-1.80;99.90
2523;DHT22;1272;53.332;9.860;2022-11-21T00:40:43;-1.80;99.90
2523;DHT22;1272;53.332;9.860;2022-11-21T00:43:09;-1.80;99.90
2523;DHT22;1272;53.332;9.860;2022-11-21T00:45:35;-1.90;99.90
2523;DHT22;1272;53.332;9.860;2022-11-21T00:48:01;-1.90;99.90
2523;DHT22;1272;53.332;9.860;2022-11-21T00:50:27;-1.90;99.90
2523;DHT22;1272;53.332;9.860;2022-11-21T00:52:56;-1.80;99.90
2523;DHT22;1272;53.332;9.860;2022-11-21T00:55:23;-1.80;99.90
2523;DHT22;1272;53.332;9.860;2022-11-21T00:57:49;-1.80;99.90
2523;DHT22;1272;53.332;9.860;2022-11-21T01:00:18;-1.70;99.90
2523;DHT22;1272;53.332;9.860;2022-11-21T01:02:44;-1.60;99.90
2523;DHT22;1272;53.332;9.860;2022-11-21T01:05:09;-1.60;99.90
2523;DHT22;1272;53.332;9.860;2022-11-21T01:07:35;-1.50;99.90
2523;DHT22;1272;53.332;9.860;2022-11-21T01:10:01;-1.50;99.90
2523;DHT22;1272;53.332;9.860;2022-11-21T01:12:27;-1.50;99.90
2523;DHT22;1272;53.332;9.860;2022-11-21T01:14:53;-1.50;99.90
2523;DHT22;1272;53.332;9.860;2022-11-21T01:17:19;-1.50;99.90
2523;DHT22;1272;53.332;9.860;2022-11-21T01:19:44;-1.40;99.90
2523;DHT22;1272;53.332;9.860;2022-11-21T01:22:10;-1.30;99.90
2523;DHT22;1272;53.332;9.860;2022-11-21T01:24:36;-1.30;99.90
2523;DHT22;1272;53.332;9.860;2022-11-21T01:27:02;-1.30;99.90
2523;DHT22;1272;53.332;9.860;2022-11-21T01:29:27;-1.20;99.90
2523;DHT22;1272;53.332;9.860;2022-11-21T01:31:53;-1.20;99.90
2523;DHT22;1272;53.332;9.860;2022-11-21T01:34:19;-1.20;99.90
2523;DHT22;1272;53.332;9.860;2022-11-21T01:36:45;-1.20;99.90
2523;DHT22;1272;53.332;9.860;2022-11-21T01:39:11;-1.20;99.90
2523;DHT22;1272;53.332;9.860;2022-11-21T01:41:39;-1.20;99.90
2523;DHT22;1272;53.332;9.860;2022-11-21T01:44:44;-1.10;99.90
2523;DHT22;1272;53.332;9.860;2022-11-21T01:47:07;-1.10;99.90
2523;DHT22;1272;53.332;9.860;2022-11-21T01:49:33;-1.10;99.90
2523;DHT22;1272;53.332;9.860;2022-11-21T01:52:05;-1.10;99.90
2523;DHT22;1272;53.332;9.860;2022-11-21T01:57:31;-1.20;99.90
2523;DHT22;1272;53.332;9.860;2022-11-21T02:02:31;-1.20;99.90
2523;DHT22;1272;53.332;9.860;2022-11-21T02:04:59;-1.20;99.90
2523;DHT22;1272;53.332;9.860;2022-11-21T02:07:27;-1.20;99.90
2523;DHT22;1272;53.332;9.860;2022-11-21T02:09:57;-1.20;99.90
2523;DHT22;1272;53.332;9.860;2022-11-21T02:12:30;-1.20;99.90
2523;DHT22;1272;53.332;9.860;2022-11-21T02:14:57;-1.20;99.90
2523;DHT22;1272;53.332;9.860;2022-11-21T02:17:25;-1.20;99.90
2523;DHT22;1272;53.332;9.860;2022-11-21T02:19:58;-1.20;99.90
2523;DHT22;1272;53.332;9.860;2022-11-21T02:25:28;-1.20;99.90
2523;DHT22;1272;53.332;9.860;2022-11-21T02:27:58;-1.20;99.90
2523;DHT22;1272;53.332;9.860;2022-11-21T02:30:30;-1.20;99.90
2523;DHT22;1272;53.332;9.860;2022-11-21T02:32:56;-1.20;99.90
2523;DHT22;1272;53.332;9.860;2022-11-21T02:35:22;-1.20;99.90
2523;DHT22;1272;53.332;9.860;2022-11-21T02:37:56;-1.10;99.90
2523;DHT22;1272;53.332;9.860;2022-11-21T02:40:27;-1.10;99.90
2523;DHT22;1272;53.332;9.860;2022-11-21T02:45:45;-1.10;99.90
2523;DHT22;1272;53.332;9.860;2022-11-21T02:48:14;-1.10;99.90
2523;DHT22;1272;53.332;9.860;2022-11-21T02:50:42;-1.20;99.90
2523;DHT22;1272;53.332;9.860;2022-11-21T02:53:10;-1.20;99.90
2523;DHT22;1272;53.332;9.860;2022-11-21T02:55:36;-1.20;99.90
2523;DHT22;1272;53.332;9.860;2022-11-21T02:58:02;-1.20;99.90
2523;DHT22;1272;53.332;9.860;2022-11-21T03:00:28;-1.20;99.90
2523;DHT22;1272;53.332;9.860;2022-11-21T03:02:54;-1.20;99.90
2523;DHT22;1272;53.332;9.860;2022-11-21T03:05:20;-1.20;99.90
2523;DHT22;1272;53.332;9.860;2022-11-21T03:07:47;-1.30;99.90
2523;DHT22;1272;53.332;9.860;2022-11-21T03:10:13;-1.30;99.90
2523;DHT22;1272;53.332;9.860;2022-11-21T03:12:41;-1.30;99.90
2523;DHT22;1272;53.332;9.860;2022-11-21T03:15:09;-1.30;99.90
2523;DHT22;1272;53.332;9.860;2022-11-21T03:17:35;-1.40;99.90
2523;DHT22;1272;53.332;9.860;2022-11-21T03:20:01;-1.30;99.90
2523;DHT22;1272;53.332;9.860;2022-11-21T03:22:27;-1.20;99.90
2523;DHT22;1272;53.332;9.860;2022-11-21T03:24:52;-1.20;99.90
2523;DHT22;1272;53.332;9.860;2022-11-21T03:27:18;-1.20;99.90
2523;DHT22;1272;53.332;9.860;2022-11-21T03:29:44;-1.20;99.90
2523;DHT22;1272;53.332;9.860;2022-11-21T03:32:10;-1.30;99.90
2523;DHT22;1272;53.332;9.860;2022-11-21T03:34:35;-1.30;99.90
2523;DHT22;1272;53.332;9.860;2022-11-21T03:37:01;-1.30;99.90
2523;DHT22;1272;53.332;9.860;2022-11-21T03:39:28;-1.30;99.90
2523;DHT22;1272;53.332;9.860;2022-11-21T03:41:54;-1.30;99.90
2523;DHT22;1272;53.332;9.860;2022-11-21T03:44:20;-1.30;99.90
2523;DHT22;1272;53.332;9.860;2022-11-21T03:46:46;-1.40;99.90
2523;DHT22;1272;53.332;9.860;2022-11-21T03:49:13;-1.40;99.90
2523;DHT22;1272;53.332;9.860;2022-11-21T03:51:40;-1.40;99.90
2523;DHT22;1272;53.332;9.860;2022-11-21T03:54:06;-1.40;99.90
2523;DHT22;1272;53.332;9.860;2022-11-21T03:56:32;-1.30;99.90
2523;DHT22;1272;53.332;9.860;2022-11-21T03:58:58;-1.30;99.90
2523;DHT22;1272;53.332;9.860;2022-11-21T04:01:24;-1.30;99.90
2523;DHT22;1272;53.332;9.860;2022-11-21T04:03:50;-1.40;99.90
2523;DHT22;1272;53.332;9.860;2022-11-21T04:06:18;-1.50;99.90
2523;DHT22;1272;53.332;9.860;2022-11-21T04:08:44;-1.40;99.90
2523;DHT22;1272;53.332;9.860;2022-11-21T04:11:10;-1.40;99.90
2523;DHT22;1272;53.332;9.860;2022-11-21T04:13:36;-1.40;99.90
2523;DHT22;1272;53.332;9.860;2022-11-21T04:16:03;-1.40;99.90
2523;DHT22;1272;53.332;9.860;2022-11-21T04:18:33;-1.50;99.90
2523;DHT22;1272;53.332;9.860;2022-11-21T04:21:01;-1.50;99.90
2523;DHT22;1272;53.332;9.860;2022-11-21T04:23:27;-1.50;99.90
2523;DHT22;1272;53.332;9.860;2022-11-21T04:26:11;-1.50;99.90
2523;DHT22;1272;53.332;9.860;2022-11-21T04:28:37;-1.50;99.90
2523;DHT22;1272;53.332;9.860;2022-11-21T04:31:04;-1.50;99.90
2523;DHT22;1272;53.332;9.860;2022-11-21T04:33:31;-1.50;99.90
2523;DHT22;1272;53.332;9.860;2022-11-21T04:35:56;-1.50;99.90
2523;DHT22;1272;53.332;9.860;2022-11-21T04:38:22;-1.60;99.90
2523;DHT22;1272;53.332;9.860;2022-11-21T04:40:48;-1.60;99.90
2523;DHT22;1272;53.332;9.860;2022-11-21T04:43:13;-1.70;99.90
2523;DHT22;1272;53.332;9.860;2022-11-21T04:45:39;-1.70;99.90
2523;DHT22;1272;53.332;9.860;2022-11-21T04:48:05;-1.70;99.90
2523;DHT22;1272;53.332;9.860;2022-11-21T04:50:31;-1.80;99.90
2523;DHT22;1272;53.332;9.860;2022-11-21T04:52:57;-1.80;99.90
2523;DHT22;1272;53.332;9.860;2022-11-21T04:55:26;-1.80;99.90
2523;DHT22;1272;53.332;9.860;2022-11-21T04:57:53;-1.80;99.90
2523;DHT22;1272;53.332;9.860;2022-11-21T05:00:18;-1.70;99.90
2523;DHT22;1272;53.332;9.860;2022-11-21T05:02:44;-1.70;99.90
2523;DHT22;1272;53.332;9.860;2022-11-21T05:05:10;-1.70;99.90
2523;DHT22;1272;53.332;9.860;2022-11-21T05:07:36;-1.60;99.90
2523;DHT22;1272;53.332;9.860;2022-11-21T05:10:06;-1.60;99.90
2523;DHT22;1272;53.332;9.860;2022-11-21T05:12:32;-1.60;99.90
2523;DHT22;1272;53.332;9.860;2022-11-21T05:15:16;-1.60;99.90
2523;DHT22;1272;53.332;9.860;2022-11-21T05:17:42;-1.60;99.90
2523;DHT22;1272;53.332;9.860;2022-11-21T05:20:08;-1.60;99.90
2523;DHT22;1272;53.332;9.860;2022-11-21T05:22:34;-1.60;99.90
2523;DHT22;1272;53.332;9.860;2022-11-21T05:25:00;-1.60;99.90
2523;DHT22;1272;53.332;9.860;2022-11-21T05:27:26;-1.50;99.90
2523;DHT22;1272;53.332;9.860;2022-11-21T05:29:51;-1.50;99.90
2523;DHT22;1272;53.332;9.860;2022-11-21T05:32:17;-1.60;99.90
2523;DHT22;1272;53.332;9.860;2022-11-21T05:34:43;-1.70;99.90
2523;DHT22;1272;53.332;9.860;2022-11-21T05:37:09;-1.80;99.90
2523;DHT22;1272;53.332;9.860;2022-11-21T05:39:34;-1.80;99.90
2523;DHT22;1272;53.332;9.860;2022-11-21T05:42:00;-1.90;99.90
2523;DHT22;1272;53.332;9.860;2022-11-21T05:44:26;-1.90;99.90
2523;DHT22;1272;53.332;9.860;2022-11-21T05:46:51;-1.80;99.90
2523;DHT22;1272;53.332;9.860;2022-11-21T05:49:17;-1.70;99.90
2523;DHT22;1272;53.332;9.860;2022-11-21T05:51:43;-1.80;99.90
2523;DHT22;1272;53.332;9.860;2022-11-21T05:54:12;-1.80;99.90
2523;DHT22;1272;53.332;9.860;2022-11-21T05:56:39;-1.80;99.90
2523;DHT22;1272;53.332;9.860;2022-11-21T05:59:04;-1.80;99.90
2523;DHT22;1272;53.332;9.860;2022-11-21T06:01:50;-1.90;99.90
2523;DHT22;1272;53.332;9.860;2022-11-21T06:04:34;-1.90;99.90
2523;DHT22;1272;53.332;9.860;2022-11-21T06:07:00;-1.90;99.90
2523;DHT22;1272;53.332;9.860;2022-11-21T06:09:25;-1.90;99.90
2523;DHT22;1272;53.332;9.860;2022-11-21T06:11:51;-1.90;99.90
2523;DHT22;1272;53.332;9.860;2022-11-21T06:14:17;-1.80;99.90
2523;DHT22;1272;53.332;9.860;2022-11-21T06:16:43;-1.80;99.90
2523;DHT22;1272;53.332;9.860;2022-11-21T06:19:08;-1.80;99.90
2523;DHT22;1272;53.332;9.860;2022-11-21T06:21:34;-1.80;99.90
2523;DHT22;1272;53.332;9.860;2022-11-21T06:24:03;-1.80;99.90
2523;DHT22;1272;53.332;9.860;2022-11-21T06:26:29;-1.80;99.90
2523;DHT22;1272;53.332;9.860;2022-11-21T06:28:55;-1.90;99.90
2523;DHT22;1272;53.332;9.860;2022-11-21T06:31:24;-2.00;99.90
2523;DHT22;1272;53.332;9.860;2022-11-21T06:33:54;-1.90;99.90
2523;DHT22;1272;53.332;9.860;2022-11-21T06:36:20;-1.90;99.90
2523;DHT22;1272;53.332;9.860;2022-11-21T06:38:46;-1.90;99.90
2523;DHT22;1272;53.332;9.860;2022-11-21T06:41:22;-1.90;99.90
2523;DHT22;1272;53.332;9.860;2022-11-21T06:43:48;-1.80;99.90
2523;DHT22;1272;53.332;9.860;2022-11-21T06:46:15;-1.80;99.90
2523;DHT22;1272;53.332;9.860;2022-11-21T06:48:41;-1.80;99.90
2523;DHT22;1272;53.332;9.860;2022-11-21T06:51:19;-1.70;99.90
2523;DHT22;1272;53.332;9.860;2022-11-21T06:53:46;-1.80;99.90
2523;DHT22;1272;53.332;9.860;2022-11-21T06:56:16;-1.70;99.90
2523;DHT22;1272;53.332;9.860;2022-11-21T06:58:42;-1.80;99.90
2523;DHT22;1272;53.332;9.860;2022-11-21T07:01:09;-1.80;99.90
2523;DHT22;1272;53.332;9.860;2022-11-21T07:03:35;-1.70;99.90
2523;DHT22;1272;53.332;9.860;2022-11-21T07:06:02;-1.70;99.90
2523;DHT22;1272;53.332;9.860;2022-11-21T07:08:28;-1.70;99.90
2523;DHT22;1272;53.332;9.860;2022-11-21T07:10:54;-1.70;99.90
2523;DHT22;1272;53.332;9.860;2022-11-21T07:13:20;-1.60;99.90
2523;DHT22;1272;53.332;9.860;2022-11-21T07:15:59;-1.70;99.90
2523;DHT22;1272;53.332;9.860;2022-11-21T07:18:25;-1.60;99.90
2523;DHT22;1272;53.332;9.860;2022-11-21T07:20:51;-1.60;99.90
2523;DHT22;1272;53.332;9.860;2022-11-21T07:23:17;-1.60;99.90
2523;DHT22;1272;53.332;9.860;2022-11-21T07:25:42;-1.60;99.90
2523;DHT22;1272;53.332;9.860;2022-11-21T07:28:08;-1.60;99.90
2523;DHT22;1272;53.332;9.860;2022-11-21T07:30:35;-1.60;99.90
2523;DHT22;1272;53.332;9.860;2022-11-21T07:33:05;-1.60;99.90
2523;DHT22;1272;53.332;9.860;2022-11-21T07:35:32;-1.50;99.90
2523;DHT22;1272;53.332;9.860;2022-11-21T07:37:59;-1.50;99.90
2523;DHT22;1272;53.332;9.860;2022-11-21T07:40:25;-1.50;99.90
2523;DHT22;1272;53.332;9.860;2022-11-21T07:42:51;-1.50;99.90
2523;DHT22;1272;53.332;9.860;2022-11-21T07:45:17;-1.50;99.90
2523;DHT22;1272;53.332;9.860;2022-11-21T07:47:43;-1.50;99.90
2523;DHT22;1272;53.332;9.860;2022-11-21T07:50:10;-1.40;99.90
2523;DHT22;1272;53.332;9.860;2022-11-21T07:52:36;-1.50;99.90
2523;DHT22;1272;53.332;9.860;2022-11-21T07:55:03;-1.50;99.90
2523;DHT22;1272;53.332;9.860;2022-11-21T07:57:30;-1.50;99.90
2523;DHT22;1272;53.332;9.860;2022-11-21T07:59:57;-1.40;99.90
2523;DHT22;1272;53.332;9.860;2022-11-21T08:02:28;-1.40;99.90
2523;DHT22;1272;53.332;9.860;2022-11-21T08:04:54;-1.40;99.90
2523;DHT22;1272;53.332;9.860;2022-11-21T08:07:21;-1.40;99.90
2523;DHT22;1272;53.332;9.860;2022-11-21T08:09:47;-1.40;99.90
2523;DHT22;1272;53.332;9.860;2022-11-21T08:12:13;-1.40;99.90
2523;DHT22;1272;53.332;9.860;2022-11-21T08:14:39;-1.40;99.90
2523;DHT22;1272;53.332;9.860;2022-11-21T08:17:05;-1.40;99.90
2523;DHT22;1272;53.332;9.860;2022-11-21T08:19:34;-1.40;99.90
2523;DHT22;1272;53.332;9.860;2022-11-21T08:22:07;-1.30;99.90
2523;DHT22;1272;53.332;9.860;2022-11-21T08:24:35;-1.30;99.90
2523;DHT22;1272;53.332;9.860;2022-11-21T08:27:01;-1.30;99.90
2523;DHT22;1272;53.332;9.860;2022-11-21T08:29:26;-1.30;99.90
2523;DHT22;1272;53.332;9.860;2022-11-21T08:31:52;-1.20;99.90
2523;DHT22;1272;53.332;9.860;2022-11-21T08:34:18;-1.20;99.90
2523;DHT22;1272;53.332;9.860;2022-11-21T08:36:43;-1.20;99.90
2523;DHT22;1272;53.332;9.860;2022-11-21T08:39:09;-1.20;99.90
2523;DHT22;1272;53.332;9.860;2022-11-21T08:41:38;-1.10;99.90
2523;DHT22;1272;53.332;9.860;2022-11-21T08:44:22;-1.10;99.90
2523;DHT22;1272;53.332;9.860;2022-11-21T08:46:48;-1.00;99.90
2523;DHT22;1272;53.332;9.860;2022-11-21T08:49:14;-1.00;99.90
2523;DHT22;1272;53.332;9.860;2022-11-21T08:51:40;-0.80;99.90
2523;DHT22;1272;53.332;9.860;2022-11-21T08:54:06;-0.90;99.90
2523;DHT22;1272;53.332;9.860;2022-11-21T08:56:32;-0.90;99.90
2523;DHT22;1272;53.332;9.860;2022-11-21T08:58:58;-0.90;99.90
2523;DHT22;1272;53.332;9.860;2022-11-21T09:01:24;-0.90;99.90
2523;DHT22;1272;53.332;9.860;2022-11-21T09:03:49;-0.90;99.90
2523;DHT22;1272;53.332;9.860;2022-11-21T09:06:15;-0.90;99.90
2523;DHT22;1272;53.332;9.860;2022-11-21T09:08:41;-1.00;99.90
2523;DHT22;1272;53.332;9.860;2022-11-21T09:11:08;-1.00;99.90
2523;DHT22;1272;53.332;9.860;2022-11-21T09:13:35;-1.00;99.90
2523;DHT22;1272;53.332;9.860;2022-11-21T09:16:02;-0.80;99.90
2523;DHT22;1272;53.332;9.860;2022-11-21T09:18:51;-0.80;99.90
2523;DHT22;1272;53.332;9.860;2022-11-21T09:21:18;-0.80;99.90
2523;DHT22;1272;53.332;9.860;2022-11-21T09:23:44;-0.70;99.90
2523;DHT22;1272;53.332;9.860;2022-11-21T09:26:10;-0.70;99.90
2523;DHT22;1272;53.332;9.860;2022-11-21T09:28:36;-0.60;99.90
2523;DHT22;1272;53.332;9.860;2022-11-21T09:31:04;-0.50;99.90
2523;DHT22;1272;53.332;9.860;2022-11-21T09:33:30;-0.50;99.90
2523;DHT22;1272;53.332;9.860;2022-11-21T09:35:59;-0.40;99.90
2523;DHT22;1272;53.332;9.860;2022-11-21T09:38:26;-0.30;99.90
2523;DHT22;1272;53.332;9.860;2022-11-21T09:41:06;-0.30;99.90
2523;DHT22;1272;53.332;9.860;2022-11-21T09:44:11;-0.20;99.90
2523;DHT22;1272;53.332;9.860;2022-11-21T09:46:46;-0.10;99.90
2523;DHT22;1272;53.332;9.860;2022-11-21T09:49:14;0.00;99.90
2523;DHT22;1272;53.332;9.860;2022-11-21T09:51:42;0.00;99.90
2523;DHT22;1272;53.332;9.860;2022-11-21T09:54:22;0.10;99.90
2523;DHT22;1272;53.332;9.860;2022-11-21T09:56:50;0.20;99.90
2523;DHT22;1272;53.332;9.860;2022-11-21T09:59:33;0.20;99.90
2523;DHT22;1272;53.332;9.860;2022-11-21T10:02:00;0.30;99.90
2523;DHT22;1272;53.332;9.860;2022-11-21T10:04:26;0.40;99.90
2523;DHT22;1272;53.332;9.860;2022-11-21T10:07:05;0.30;99.90
2523;DHT22;1272;53.332;9.860;2022-11-21T10:09:38;0.20;99.90
2523;DHT22;1272;53.332;9.860;2022-11-21T10:12:27;0.20;99.90
2523;DHT22;1272;53.332;9.860;2022-11-21T10:20:52;0.40;99.90
2523;DHT22;1272;53.332;9.860;2022-11-21T10:23:31;0.40;99.90
2523;DHT22;1272;53.332;9.860;2022-11-21T10:28:54;0.60;99.90
2523;DHT22;1272;53.332;9.860;2022-11-21T10:31:22;0.70;99.90
2523;DHT22;1272;53.332;9.860;2022-11-21T10:33:50;0.80;99.90
2523;DHT22;1272;53.332;9.860;2022-11-21T10:39:10;1.10;99.90
2523;DHT22;1272;53.332;9.860;2022-11-21T10:42:11;1.10;99.90
2523;DHT22;1272;53.332;9.860;2022-11-21T10:44:29;1.20;99.90
2523;DHT22;1272;53.332;9.860;2022-11-21T10:47:27;1.30;99.90
2523;DHT22;1272;53.332;9.860;2022-11-21T10:52:48;1.40;99.90
2523;DHT22;1272;53.332;9.860;2022-11-21T10:55:16;1.40;99.90
2523;DHT22;1272;53.332;9.860;2022-11-21T10:57:47;1.30;99.90
2523;DHT22;1272;53.332;9.860;2022-11-21T11:00:15;1.20;99.90
2523;DHT22;1272;53.332;9.860;2022-11-21T11:02:57;1.20;99.90
2523;DHT22;1272;53.332;9.860;2022-11-21T11:05:36;1.20;99.90
2523;DHT22;1272;53.332;9.860;2022-11-21T11:10:28;1.30;99.90
2523;DHT22;1272;53.332;9.860;2022-11-21T11:12:55;1.40;99.90
2523;DHT22;1272;53.332;9.860;2022-11-21T11:18:26;1.20;99.90
2523;DHT22;1272;53.332;9.860;2022-11-21T11:21:16;1.20;99.90
2523;DHT22;1272;53.332;9.860;2022-11-21T11:23:43;1.10;99.90
2523;DHT22;1272;53.332;9.860;2022-11-21T11:28:48;1.10;99.90
2523;DHT22;1272;53.332;9.860;2022-11-21T11:31:14;1.20;99.90
2523;DHT22;1272;53.332;9.860;2022-11-21T11:33:49;1.40;99.90
2523;DHT22;1272;53.332;9.860;2022-11-21T11:36:37;1.40;99.90
2523;DHT22;1272;53.332;9.860;2022-11-21T11:39:34;1.40;99.90
2523;DHT22;1272;53.332;9.860;2022-11-21T11:45:04;1.60;99.90
2523;DHT22;1272;53.332;9.860;2022-11-21T11:47:57;1.70;99.90
2523;DHT22;1272;53.332;9.860;2022-11-21T11:50:33;2.00;99.90
2523;DHT22;1272;53.332;9.860;2022-11-21T11:58:22;2.50;99.90
2523;DHT22;1272;53.332;9.860;2022-11-21T12:01:14;2.50;99.90
2523;DHT22;1272;53.332;9.860;2022-11-21T12:04:09;2.50;99.90
2523;DHT22;1272;53.332;9.860;2022-11-21T12:06:53;2.40;99.90
2523;DHT22;1272;53.332;9.860;2022-11-21T12:09:34;2.50;99.90
2523;DHT22;1272;53.332;9.860;2022-11-21T12:12:14;2.60;99.90
2523;DHT22;1272;53.332;9.860;2022-11-21T12:21:06;3.20;59.30
2523;DHT22;1272;53.332;9.860;2022-11-21T12:23:14;3.40;76.70
2523;DHT22;1272;53.332;9.860;2022-11-21T12:29:10;3.70;30.00
2523;DHT22;1272;53.332;9.860;2022-11-21T12:37:03;4.00;1.00
2523;DHT22;1272;53.332;9.860;2022-11-21T12:42:22;4.10;1.00
2523;DHT22;1272;53.332;9.860;2022-11-21T12:45:32;4.20;99.90
2523;DHT22;1272;53.332;9.860;2022-11-21T13:05:32;4.20;99.90
2523;DHT22;1272;53.332;9.860;2022-11-21T13:08:10;4.10;1.00
2523;DHT22;1272;53.332;9.860;2022-11-21T13:10:42;4.10;99.90
2523;DHT22;1272;53.332;9.860;2022-11-21T13:15:57;4.00;99.90
2523;DHT22;1272;53.332;9.860;2022-11-21T13:18:30;3.90;99.90
2523;DHT22;1272;53.332;9.860;2022-11-21T13:20:57;3.80;1.00
2523;DHT22;1272;53.332;9.860;2022-11-21T13:23:40;3.70;1.00
2523;DHT22;1272;53.332;9.860;2022-11-21T13:29:10;3.60;99.90
2523;DHT22;1272;53.332;9.860;2022-11-21T13:31:37;3.60;99.90
2523;DHT22;1272;53.332;9.860;2022-11-21T13:34:08;3.50;1.00
2523;DHT22;1272;53.332;9.860;2022-11-21T13:36:50;3.50;1.00
2523;DHT22;1272;53.332;9.860;2022-11-21T13:39:27;3.40;1.00
2523;DHT22;1272;53.332;9.860;2022-11-21T13:42:05;3.40;1.00
2523;DHT22;1272;53.332;9.860;2022-11-21T13:44:53;3.40;1.00
2523;DHT22;1272;53.332;9.860;2022-11-21T13:58:01;3.20;99.90
2523;DHT22;1272;53.332;9.860;2022-11-21T14:00:57;3.20;99.90
2523;DHT22;1272;53.332;9.860;2022-11-21T14:06:35;3.10;1.00
2523;DHT22;1272;53.332;9.860;2022-11-21T14:12:04;3.10;99.90
2523;DHT22;1272;53.332;9.860;2022-11-21T14:14:45;3.10;99.90
2523;DHT22;1272;53.332;9.860;2022-11-21T14:17:32;3.00;99.90
2523;DHT22;1272;53.332;9.860;2022-11-21T14:20:01;2.90;99.90
2523;DHT22;1272;53.332;9.860;2022-11-21T14:25:19;2.80;1.00
2523;DHT22;1272;53.332;9.860;2022-11-21T14:27:47;2.70;99.90
2523;DHT22;1272;53.332;9.860;2022-11-21T14:30:43;2.60;99.90
2523;DHT22;1272;53.332;9.860;2022-11-21T14:33:32;2.60;26.30
2523;DHT22;1272;53.332;9.860;2022-11-21T14:38:34;2.40;99.90
2523;DHT22;1272;53.332;9.860;2022-11-21T14:44:05;2.30;1.00
2523;DHT22;1272;53.332;9.860;2022-11-21T14:46:40;2.20;3.00
2523;DHT22;1272;53.332;9.860;2022-11-21T14:51:44;2.20;28.50
2523;DHT22;1272;53.332;9.860;2022-11-21T14:54:16;2.10;59.40
2523;DHT22;1272;53.332;9.860;2022-11-21T14:56:56;2.10;99.90
2523;DHT22;1272;53.332;9.860;2022-11-21T14:59:31;2.00;99.90
2523;DHT22;1272;53.332;9.860;2022-11-21T15:02:03;2.00;99.90
2523;DHT22;1272;53.332;9.860;2022-11-21T15:04:35;1.90;98.40
2523;DHT22;1272;53.332;9.860;2022-11-21T15:07:01;1.90;58.10
2523;DHT22;1272;53.332;9.860;2022-11-21T15:09:31;1.80;44.90
2523;DHT22;1272;53.332;9.860;2022-11-21T15:12:00;1.80;94.00
2523;DHT22;1272;53.332;9.860;2022-11-21T15:17:05;1.60;99.90
2523;DHT22;1272;53.332;9.860;2022-11-21T15:19:32;1.50;99.90
2523;DHT22;1272;53.332;9.860;2022-11-21T15:22:01;1.40;99.90
2523;DHT22;1272;53.332;9.860;2022-11-21T15:24:42;1.40;99.90
2523;DHT22;1272;53.332;9.860;2022-11-21T15:27:30;1.30;99.90
2523;DHT22;1272;53.332;9.860;2022-11-21T15:30:06;1.20;1.00
2523;DHT22;1272;53.332;9.860;2022-11-21T15:33:17;1.20;1.00
2523;DHT22;1272;53.332;9.860;2022-11-21T15:38:31;1.10;1.00
2523;DHT22;1272;53.332;9.860;2022-11-21T15:41:02;1.00;1.00
2523;DHT22;1272;53.332;9.860;2022-11-21T15:44:13;0.90;1.00
2523;DHT22;1272;53.332;9.860;2022-11-21T15:46:33;0.90;1.00
2523;DHT22;1272;53.332;9.860;2022-11-21T15:49:02;0.80;1.00
2523;DHT22;1272;53.332;9.860;2022-11-21T15:51:39;0.80;9.20
2523;DHT22;1272;53.332;9.860;2022-11-21T15:54:06;0.80;30.00
2523;DHT22;1272;53.332;9.860;2022-11-21T15:56:32;0.80;22.10
2523;DHT22;1272;53.332;9.860;2022-11-21T15:58:58;0.80;19.60
2523;DHT22;1272;53.332;9.860;2022-11-21T16:01:28;0.80;44.90
2523;DHT22;1272;53.332;9.860;2022-11-21T16:04:00;0.70;39.30
2523;DHT22;1272;53.332;9.860;2022-11-21T16:06:27;0.70;37.10
2523;DHT22;1272;53.332;9.860;2022-11-21T16:08:53;0.70;40.70
2523;DHT22;1272;53.332;9.860;2022-11-21T16:11:25;0.70;59.30
2523;DHT22;1272;53.332;9.860;2022-11-21T16:13:53;0.60;68.20
2523;DHT22;1272;53.332;9.860;2022-11-21T16:16:20;0.60;55.90
2523;DHT22;1272;53.332;9.860;2022-11-21T16:18:46;0.60;53.90
2523;DHT22;1272;53.332;9.860;2022-11-21T16:21:15;0.60;39.70
2523;DHT22;1272;53.332;9.860;2022-11-21T16:23:41;0.60;45.10
2523;DHT22;1272;53.332;9.860;2022-11-21T16:26:08;0.50;25.10
2523;DHT22;1272;53.332;9.860;2022-11-21T16:28:35;0.40;62.20
2523;DHT22;1272;53.332;9.860;2022-11-21T16:31:01;0.40;93.30
2523;DHT22;1272;53.332;9.860;2022-11-21T16:33:28;0.30;99.90
2523;DHT22;1272;53.332;9.860;2022-11-21T16:35:54;0.30;99.90
2523;DHT22;1272;53.332;9.860;2022-11-21T16:38:36;0.30;99.90
2523;DHT22;1272;53.332;9.860;2022-11-21T16:41:04;0.30;99.90
2523;DHT22;1272;53.332;9.860;2022-11-21T16:43:30;0.20;99.90
2523;DHT22;1272;53.332;9.860;2022-11-21T16:46:05;0.20;99.90
2523;DHT22;1272;53.332;9.860;2022-11-21T16:48:31;0.20;99.90
2523;DHT22;1272;53.332;9.860;2022-11-21T16:51:17;0.20;99.90
2523;DHT22;1272;53.332;9.860;2022-11-21T16:53:47;0.20;99.90
2523;DHT22;1272;53.332;9.860;2022-11-21T16:56:15;0.10;99.90
2523;DHT22;1272;53.332;9.860;2022-11-21T16:58:41;0.10;99.90
2523;DHT22;1272;53.332;9.860;2022-11-21T17:01:15;0.10;99.90
2523;DHT22;1272;53.332;9.860;2022-11-21T17:03:42;0.00;99.90
2523;DHT22;1272;53.332;9.860;2022-11-21T17:06:10;0.00;99.90
2523;DHT22;1272;53.332;9.860;2022-11-21T17:08:36;0.00;99.90
2523;DHT22;1272;53.332;9.860;2022-11-21T17:11:22;0.00;99.90
2523;DHT22;1272;53.332;9.860;2022-11-21T17:13:51;0.00;99.90
2523;DHT22;1272;53.332;9.860;2022-11-21T17:16:18;-0.10;99.90
2523;DHT22;1272;53.332;9.860;2022-11-21T17:18:44;-0.10;99.90
2523;DHT22;1272;53.332;9.860;2022-11-21T17:21:13;-0.20;99.90
2523;DHT22;1272;53.332;9.860;2022-11-21T17:23:41;-0.20;99.90
2523;DHT22;1272;53.332;9.860;2022-11-21T17:26:09;-0.20;99.90
2523;DHT22;1272;53.332;9.860;2022-11-21T17:28:37;-0.30;99.90
2523;DHT22;1272;53.332;9.860;2022-11-21T17:31:10;-0.30;99.90
2523;DHT22;1272;53.332;9.860;2022-11-21T17:33:36;-0.20;99.90
2523;DHT22;1272;53.332;9.860;2022-11-21T17:36:03;-0.30;99.90
2523;DHT22;1272;53.332;9.860;2022-11-21T17:38:29;-0.30;99.90
2523;DHT22;1272;53.332;9.860;2022-11-21T17:40:59;-0.40;99.90
2523;DHT22;1272;53.332;9.860;2022-11-21T17:43:25;-0.40;99.90
2523;DHT22;1272;53.332;9.860;2022-11-21T17:45:50;-0.40;99.90
2523;DHT22;1272;53.332;9.860;2022-11-21T17:48:20;-0.50;99.90
2523;DHT22;1272;53.332;9.860;2022-11-21T17:50:46;-0.60;99.90
2523;DHT22;1272;53.332;9.860;2022-11-21T17:53:12;-0.50;99.90
2523;DHT22;1272;53.332;9.860;2022-11-21T17:55:37;-0.60;99.90
2523;DHT22;1272;53.332;9.860;2022-11-21T17:58:06;-0.60;99.90
2523;DHT22;1272;53.332;9.860;2022-11-21T18:00:32;-0.60;99.90
2523;DHT22;1272;53.332;9.860;2022-11-21T18:02:57;-0.60;99.90
2523;DHT22;1272;53.332;9.860;2022-11-21T18:05:23;-0.50;99.90
2523;DHT22;1272;53.332;9.860;2022-11-21T18:07:49;-0.60;99.90
2523;DHT22;1272;53.332;9.860;2022-11-21T18:10:15;-0.60;99.90
2523;DHT22;1272;53.332;9.860;2022-11-21T18:12:41;-0.60;99.90
2523;DHT22;1272;53.332;9.860;2022-11-21T18:15:09;-0.70;99.90
2523;DHT22;1272;53.332;9.860;2022-11-21T18:17:35;-0.70;99.90
2523;DHT22;1272;53.332;9.860;2022-11-21T18:20:01;-0.70;99.90